Time;durP1;ratioP1;P1;durP2;ratioP2;P2;SDS_P1;SDS_P2;PMS_P1;PMS_P2;Temp;Humidity;BMP_temperature;BMP_pressure;BME280_temperature;BME280_humidity;BME280_pressure;Samples;Min_cycle;Max_cycle;Signal;HPM_P1;HPM_P2
2021/01/16 00:00:28;;;;;;;11.02;4.82;;;;;;;-1.07;59.12;100076.75;4441572;32;20580;-85
2021/01/16 00:02:54;;;;;;;10.13;4.12;;;;;;;-1.14;59.11;100066.38;4466744;32;20128;-84
2021/01/16 00:05:23;;;;;;;12.35;4.53;;;;;;;-1.09;59.11;100067.34;4466712;32;20096;-85
2021/01/16 00:07:58;;;;;;;11.20;4.67;;;;;;;-1.05;59.11;100069.97;4454216;32;20110;-85
2021/01/16 00:10:24;;;;;;;9.25;4.65;;;;;;;-1.09;59.11;100062.22;4453729;32;20089;-84
2021/01/16 00:12:49;;;;;;;9.40;4.55;;;;;;;-0.87;59.12;100058.38;4453070;32;34504;-85
2021/01/16 00:15:15;;;;;;;14.63;4.80;;;;;;;-0.99;59.11;100066.66;4466621;32;20484;-86
2021/01/16 00:17:40;;;;;;;12.55;5.20;;;;;;;-0.97;59.12;100060.75;4453510;32;20173;-86
2021/01/16 00:20:06;;;;;;;11.90;4.90;;;;;;;-1.11;59.11;100067.31;4452916;32;29471;-86
2021/01/16 00:22:32;;;;;;;11.60;5.82;;;;;;;-0.89;59.12;100065.16;4466493;32;20124;-86
2021/01/16 00:24:58;;;;;;;14.00;5.62;;;;;;;-0.98;59.12;100059.03;4466312;32;20124;-86
2021/01/16 00:27:25;;;;;;;13.75;6.32;;;;;;;-1.04;59.11;100061.47;4453594;32;20093;-86
2021/01/16 00:29:51;;;;;;;15.02;6.80;;;;;;;-1.07;59.12;100058.00;4467793;32;20101;-85
2021/01/16 00:32:16;;;;;;;11.30;5.50;;;;;;;-1.14;59.11;100064.69;4467680;32;20104;-86
2021/01/16 00:34:41;;;;;;;16.67;6.80;;;;;;;-1.28;59.10;100069.50;4452359;32;34539;-85
2021/01/16 00:37:07;;;;;;;14.68;5.80;;;;;;;-1.47;59.09;100067.37;4467580;32;20104;-85
2021/01/16 00:39:33;;;;;;;15.00;5.93;;;;;;;-1.31;59.10;100066.91;4465373;32;35880;-85
2021/01/16 00:41:59;;;;;;;12.80;5.68;;;;;;;-1.22;59.11;100063.66;4466866;32;29616;-85
2021/01/16 00:44:25;;;;;;;18.02;7.15;;;;;;;-1.16;59.11;100068.91;4466156;32;20128;-86
2021/01/16 00:46:51;;;;;;;26.05;11.57;;;;;;;-1.38;59.09;100062.50;4468547;32;20080;-85
2021/01/16 00:49:16;;;;;;;16.15;7.30;;;;;;;-1.27;59.10;100061.00;4468812;32;20135;-84
2021/01/16 00:51:44;;;;;;;15.27;6.03;;;;;;;-1.27;59.10;100065.25;4467864;32;30358;-85
2021/01/16 00:54:09;;;;;;;15.63;7.28;;;;;;;-1.11;59.11;100059.62;4468518;32;20537;-85
2021/01/16 00:56:34;;;;;;;13.70;6.25;;;;;;;-1.20;59.11;100053.47;4468030;32;31374;-85
2021/01/16 00:59:00;;;;;;;20.23;8.30;;;;;;;-1.14;59.11;100061.28;4467688;32;36769;-85
2021/01/16 01:01:25;;;;;;;14.93;6.30;;;;;;;-1.36;59.10;100062.53;4469491;32;24402;-85
2021/01/16 01:03:50;;;;;;;15.65;7.12;;;;;;;-1.15;59.11;100065.53;4469196;32;32925;-85
2021/01/16 01:06:16;;;;;;;15.45;6.47;;;;;;;-1.11;59.11;100069.84;4467729;32;35669;-85
2021/01/16 01:08:41;;;;;;;17.17;7.75;;;;;;;-1.11;59.11;100067.31;4468537;32;20155;-85
2021/01/16 01:11:07;;;;;;;16.35;7.40;;;;;;;-1.29;59.10;100069.47;4468512;32;20116;-84
2021/01/16 01:13:32;;;;;;;15.00;6.93;;;;;;;-1.21;59.11;100067.94;4468930;32;35156;-84
2021/01/16 01:15:57;;;;;;;16.85;7.22;;;;;;;-1.24;59.10;100071.28;4469398;32;27339;-86
2021/01/16 01:18:23;;;;;;;16.80;7.05;;;;;;;-1.05;59.11;100067.41;4469251;32;25684;-86
2021/01/16 01:20:48;;;;;;;17.17;6.93;;;;;;;-1.14;59.11;100068.94;4455291;32;20137;-85
2021/01/16 01:23:13;;;;;;;13.80;6.53;;;;;;;-1.24;59.09;100070.44;4455417;32;20168;-86
2021/01/16 01:25:39;;;;;;;14.95;6.45;;;;;;;-0.97;59.12;100070.97;4455021;32;25862;-85
2021/01/16 01:28:04;;;;;;;20.20;7.85;;;;;;;-0.95;59.12;100060.78;4454388;32;39203;-86
2021/01/16 01:30:30;;;;;;;16.20;7.10;;;;;;;-1.30;59.10;100058.41;4469077;32;25468;-85
2021/01/16 01:32:56;;;;;;;19.45;7.57;;;;;;;-1.14;59.11;100063.84;4468171;32;20089;-84
2021/01/16 01:35:22;;;;;;;16.23;6.65;;;;;;;-1.16;59.11;100061.25;4469613;32;20131;-86
2021/01/16 01:37:49;;;;;;;17.37;7.05;;;;;;;-1.34;59.10;100058.31;4468447;32;20108;-86
2021/01/16 01:40:15;;;;;;;14.60;6.60;;;;;;;-1.40;59.09;100056.50;4455413;32;20116;-86
2021/01/16 01:42:40;;;;;;;13.98;6.47;;;;;;;-1.58;59.09;100056.09;4468316;32;20089;-85
2021/01/16 01:45:07;;;;;;;14.35;7.45;;;;;;;-1.57;59.08;100055.28;4454753;32;22682;-85
2021/01/16 01:47:34;;;;;;;15.95;7.15;;;;;;;-1.54;59.08;100052.78;4455543;32;20120;-86
2021/01/16 01:49:59;;;;;;;17.73;7.03;;;;;;;-1.70;59.07;100053.28;4468265;32;20116;-85
2021/01/16 01:52:26;;;;;;;16.35;6.65;;;;;;;-1.79;59.07;100047.97;4467339;32;31710;-85
2021/01/16 01:54:51;;;;;;;17.27;6.95;;;;;;;-1.71;59.08;100052.41;4469527;32;20089;-86
2021/01/16 01:57:17;;;;;;;14.93;6.50;;;;;;;-1.52;59.09;100043.47;4455026;32;20503;-87
2021/01/16 01:59:43;;;;;;;15.85;6.25;;;;;;;-1.84;59.07;100040.22;4442165;32;21058;-86
2021/01/16 02:02:08;;;;;;;16.08;6.70;;;;;;;-1.91;59.06;100051.09;4467745;32;20108;-86
2021/01/16 02:04:33;;;;;;;15.82;6.10;;;;;;;-1.80;59.07;100048.81;4467591;32;29662;-87
2021/01/16 02:06:59;;;;;;;14.48;6.25;;;;;;;-1.71;59.08;100056.66;4454858;32;20500;-87
2021/01/16 02:09:25;;;;;;;13.65;6.28;;;;;;;-1.59;59.09;100052.69;4441328;32;33517;-88
2021/01/16 02:11:53;;;;;;;15.90;6.75;;;;;;;-1.71;59.08;100054.97;4468065;32;20159;-85
2021/01/16 02:14:27;;;;;;;13.88;6.18;;;;;;;-1.66;59.08;100055.91;4468130;32;20089;-85
2021/01/16 02:16:53;;;;;;;13.35;6.20;;;;;;;-1.77;59.07;100049.72;4468193;32;20160;-87
2021/01/16 02:19:40;;;;;;;15.80;6.70;;;;;;;-1.82;59.07;100051.31;4467607;32;29406;-87
2021/01/16 02:22:06;;;;;;;16.70;6.12;;;;;;;-1.83;59.06;100054.69;4468590;32;20523;-88
2021/01/16 02:24:31;;;;;;;13.62;5.97;;;;;;;-1.97;59.06;100053.50;4468238;32;20137;-87
2021/01/16 02:27:22;;;;;;;17.37;6.75;;;;;;;-2.09;59.06;100054.09;4454383;32;28480;-87
2021/01/16 02:29:47;;;;;;;18.02;6.20;;;;;;;-2.04;59.05;100055.06;4469490;32;20123;-85
2021/01/16 02:32:13;;;;;;;11.98;4.62;;;;;;;-2.17;59.05;100058.16;4467307;32;23044;-85
2021/01/16 02:34:40;;;;;;;15.85;7.20;;;;;;;-2.03;59.07;100048.28;4467148;32;28516;-86
2021/01/16 02:37:24;;;;;;;17.95;6.70;;;;;;;-1.96;59.06;100062.88;4454963;32;20108;-86
2021/01/16 02:40:14;;;;;;;16.00;7.05;;;;;;;-2.06;59.05;100059.28;4469226;32;20168;-86
2021/01/16 02:43:03;;;;;;;12.52;6.12;;;;;;;-2.03;59.05;100055.94;4469113;32;20101;-86
2021/01/16 02:45:41;;;;;;;16.50;6.53;;;;;;;-2.11;59.05;100065.09;4467901;32;20395;-84
2021/01/16 02:48:22;;;;;;;15.82;6.15;;;;;;;-2.03;59.05;100053.38;4454952;32;20143;-85
2021/01/16 02:50:49;;;;;;;15.90;6.72;;;;;;;-2.12;59.05;100060.84;4468077;32;20479;-85
2021/01/16 02:53:15;;;;;;;14.68;6.47;;;;;;;-2.30;59.04;100056.16;4467986;32;20116;-85
2021/01/16 02:55:40;;;;;;;14.25;7.37;;;;;;;-2.49;59.03;100059.91;4467555;32;20116;-85
2021/01/16 02:58:05;;;;;;;17.98;7.30;;;;;;;-2.48;59.03;100061.63;4467651;32;20431;-84
2021/01/16 03:00:31;;;;;;;15.57;6.15;;;;;;;-2.33;59.03;100058.63;4441523;32;20131;-85
2021/01/16 03:02:56;;;;;;;17.73;7.37;;;;;;;-2.35;59.04;100055.19;4467853;32;20089;-85
2021/01/16 03:05:22;;;;;;;17.25;6.93;;;;;;;-2.26;59.04;100051.16;4454001;32;35236;-86
2021/01/16 03:07:47;;;;;;;18.98;7.68;;;;;;;-2.20;59.05;100053.84;4454762;32;20163;-85
2021/01/16 03:10:12;;;;;;;18.33;7.00;;;;;;;-2.17;59.05;100061.56;4466995;32;20100;-87
2021/01/16 03:12:38;;;;;;;27.27;10.52;;;;;;;-2.17;59.05;100055.59;4467036;32;34470;-88
2021/01/16 03:15:09;;;;;;;19.87;8.65;;;;;;;-2.10;59.06;100062.59;4454138;32;27334;-87
2021/01/16 03:17:48;;;;;;;35.40;11.50;;;;;;;-2.17;59.05;100060.69;4454808;32;20104;-86
2021/01/16 03:20:24;;;;;;;20.85;7.75;;;;;;;-2.18;59.04;100069.16;4455014;32;20105;-89
2021/01/16 03:22:49;;;;;;;28.02;9.60;;;;;;;-2.13;59.05;100071.81;4455908;32;20101;-89
2021/01/16 03:25:19;;;;;;;22.70;8.43;;;;;;;-1.90;59.06;100066.44;4454168;32;20638;-87
2021/01/16 03:27:44;;;;;;;23.15;9.52;;;;;;;-1.64;59.08;100069.59;4454747;32;20452;-86
2021/01/16 03:30:10;;;;;;;19.10;7.75;;;;;;;-1.88;59.07;100066.50;4454369;32;20100;-87
2021/01/16 03:32:36;;;;;;;17.40;6.70;;;;;;;-1.79;59.07;100076.91;4454392;32;20163;-89
2021/01/16 03:35:01;;;;;;;22.98;8.60;;;;;;;-1.55;59.08;100080.00;4466551;32;30022;-87
2021/01/16 03:37:26;;;;;;;26.05;9.82;;;;;;;-1.52;59.08;100068.13;4467312;32;20139;-88
2021/01/16 03:39:52;;;;;;;28.60;11.07;;;;;;;-1.38;59.09;100070.16;4467496;32;20170;-87
2021/01/16 03:42:17;;;;;;;29.83;11.00;;;;;;;-1.33;59.10;100068.56;4454395;32;20386;-88
2021/01/16 03:44:43;;;;;;;26.42;9.98;;;;;;;-1.37;59.10;100078.69;4467206;32;20089;-87
2021/01/16 03:47:08;;;;;;;22.65;10.73;;;;;;;-1.39;59.09;100082.91;4453769;32;32422;-88
2021/01/16 03:49:34;;;;;;;17.90;7.70;;;;;;;-1.29;59.10;100085.66;4453580;32;28073;-88
2021/01/16 03:51:59;;;;;;;20.35;8.98;;;;;;;-1.21;59.11;100090.91;4454710;32;20112;-88
2021/01/16 03:54:25;;;;;;;16.23;7.22;;;;;;;-1.36;59.10;100091.47;4453643;32;21055;-87
2021/01/16 03:56:50;;;;;;;21.42;9.60;;;;;;;-1.48;59.09;100087.78;4468569;32;20133;-87
2021/01/16 03:59:15;;;;;;;19.40;8.20;;;;;;;-1.55;59.08;100089.34;4466906;32;20468;-85
2021/01/16 04:01:42;;;;;;;20.75;9.55;;;;;;;-1.46;59.09;100092.09;4467198;32;20132;-87
2021/01/16 04:04:07;;;;;;;20.92;10.52;;;;;;;-1.44;59.08;100092.13;4466992;32;20112;-85
2021/01/16 04:06:33;;;;;;;22.62;9.45;;;;;;;-1.43;59.09;100083.63;4466781;32;20156;-85
2021/01/16 04:08:58;;;;;;;19.05;8.73;;;;;;;-1.39;59.09;100090.56;4467836;32;20417;-85
2021/01/16 04:11:23;;;;;;;20.05;7.62;;;;;;;-1.29;59.10;100090.75;4466573;32;20168;-86
2021/01/16 04:13:50;;;;;;;16.58;7.90;;;;;;;-1.44;59.09;100085.31;4466254;32;24130;-87
2021/01/16 04:16:15;;;;;;;19.77;8.65;;;;;;;-1.30;59.11;100086.50;4466507;32;20104;-86
2021/01/16 04:18:41;;;;;;;19.90;9.00;;;;;;;-1.27;59.10;100086.56;4466860;32;20436;-86
2021/01/16 04:21:06;;;;;;;23.02;8.43;;;;;;;-1.21;59.11;100073.03;4466549;32;22913;-87
2021/01/16 04:23:32;;;;;;;19.23;10.25;;;;;;;-1.18;59.11;100060.34;4469705;32;25741;-86
2021/01/16 04:25:57;;;;;;;20.73;9.02;;;;;;;-1.21;59.11;100070.47;4455311;32;25447;-86
2021/01/16 04:28:23;;;;;;;20.40;8.07;;;;;;;-1.04;59.11;100074.25;4455973;32;20117;-86
2021/01/16 04:30:48;;;;;;;22.05;8.38;;;;;;;-0.99;59.12;100080.31;4468953;32;20084;-86
2021/01/16 04:33:14;;;;;;;22.42;8.93;;;;;;;-0.76;59.13;100075.63;4470190;32;20120;-85
2021/01/16 04:35:40;;;;;;;20.88;8.52;;;;;;;-0.73;59.12;100079.94;4468884;32;20134;-86
2021/01/16 04:38:05;;;;;;;21.20;8.65;;;;;;;-0.86;59.13;100072.88;4468709;32;20514;-86
2021/01/16 04:40:30;;;;;;;18.65;8.40;;;;;;;-0.85;59.12;100070.34;4468028;32;31268;-85
2021/01/16 04:42:56;;;;;;;17.83;8.13;;;;;;;-0.97;59.12;100062.44;4470182;32;20133;-87
2021/01/16 04:45:22;;;;;;;17.70;8.50;;;;;;;-1.08;59.12;100066.50;4468842;32;20100;-86
2021/01/16 04:47:48;;;;;;;18.52;7.93;;;;;;;-0.86;59.13;100065.22;4468623;32;20409;-85
2021/01/16 04:50:15;;;;;;;20.85;8.35;;;;;;;-0.82;59.13;100067.00;4455698;32;20080;-86
2021/01/16 04:52:40;;;;;;;17.87;8.75;;;;;;;-0.89;59.12;100065.16;4468846;32;20115;-86
2021/01/16 04:55:13;;;;;;;20.62;9.65;;;;;;;-1.08;59.12;100074.16;4442742;32;20397;-86
2021/01/16 04:57:39;;;;;;;20.20;8.38;;;;;;;-0.91;59.12;100074.50;4456209;32;20156;-86
2021/01/16 05:00:08;;;;;;;18.70;8.90;;;;;;;-0.72;59.13;100082.50;4455580;32;20103;-86
2021/01/16 05:02:39;;;;;;;18.62;7.87;;;;;;;-0.77;59.13;100084.13;4468566;32;20076;-87
2021/01/16 05:05:13;;;;;;;20.75;8.65;;;;;;;-0.80;59.12;100080.66;4470393;32;20122;-85
2021/01/16 05:07:39;;;;;;;19.58;9.02;;;;;;;-0.60;59.14;100076.78;4457439;32;20495;-87
2021/01/16 05:10:08;;;;;;;23.08;8.60;;;;;;;-0.65;59.14;100076.69;4441810;32;32219;-85
2021/01/16 05:13:09;;;;;;;18.77;8.52;;;;;;;-0.50;59.15;100078.66;4468759;32;20441;-87
2021/01/16 05:15:35;;;;;;;18.10;8.13;;;;;;;-0.56;59.15;100078.56;4468610;32;20126;-86
2021/01/16 05:18:14;;;;;;;18.08;8.02;;;;;;;-0.69;59.14;100087.72;4455662;32;20101;-87
2021/01/16 05:20:42;;;;;;;21.93;8.77;;;;;;;-0.71;59.14;100091.03;4455812;32;20209;-85
2021/01/16 05:23:17;;;;;;;15.90;7.90;;;;;;;-0.73;59.13;100085.03;4455917;32;20185;-86
2021/01/16 05:25:50;;;;;;;19.40;8.02;;;;;;;-0.81;59.13;100084.06;4468763;32;20154;-86
2021/01/16 05:28:25;;;;;;;19.70;8.95;;;;;;;-0.98;59.12;100092.25;4469776;32;20101;-86
2021/01/16 05:30:52;;;;;;;21.33;9.50;;;;;;;-0.93;59.12;100092.34;4468383;32;20080;-85
2021/01/16 05:33:19;;;;;;;20.55;8.85;;;;;;;-0.93;59.12;100080.44;4455322;32;20081;-87
2021/01/16 05:35:44;;;;;;;19.95;8.10;;;;;;;-0.93;59.12;100084.69;4455213;32;20100;-86
2021/01/16 05:38:13;;;;;;;23.40;9.48;;;;;;;-1.06;59.11;100098.91;4468141;32;20119;-87
2021/01/16 05:40:39;;;;;;;18.37;8.75;;;;;;;-1.18;59.10;100103.78;4455460;32;20153;-87
2021/01/16 05:43:04;;;;;;;22.17;8.68;;;;;;;-1.03;59.11;100095.53;4469494;32;20132;-85
2021/01/16 05:45:36;;;;;;;20.55;8.88;;;;;;;-1.26;59.09;100090.81;4454195;32;30529;-86
2021/01/16 05:48:05;;;;;;;21.55;8.75;;;;;;;-1.04;59.11;100086.16;4469728;32;20105;-86
2021/01/16 05:50:33;;;;;;;24.03;9.43;;;;;;;-0.96;59.12;100095.69;4468271;32;20097;-87
2021/01/16 05:52:58;;;;;;;19.52;9.10;;;;;;;-1.00;59.12;100096.47;4468502;32;20222;-87
2021/01/16 05:55:24;;;;;;;23.77;8.85;;;;;;;-0.69;59.13;100097.94;4467133;32;39497;-88
2021/01/16 05:57:50;;;;;;;18.73;9.07;;;;;;;-0.68;59.14;100103.91;4468299;32;20123;-87
2021/01/16 06:00:38;;;;;;;23.60;9.73;;;;;;;-0.51;59.14;100107.63;4467887;32;20126;-86
2021/01/16 06:03:08;;;;;;;20.27;8.77;;;;;;;-0.50;59.15;100104.22;4442849;32;20521;-86
2021/01/16 06:05:34;;;;;;;21.15;8.57;;;;;;;-0.40;59.15;100102.72;4455517;32;20235;-87
2021/01/16 06:08:00;;;;;;;21.10;10.15;;;;;;;-0.40;59.15;100090.78;4468352;32;20151;-86
2021/01/16 06:10:25;;;;;;;22.73;10.02;;;;;;;-0.46;59.15;100098.34;4468173;32;20144;-87
2021/01/16 06:12:51;;;;;;;18.77;8.93;;;;;;;-0.58;59.14;100104.94;4454623;32;22616;-87
2021/01/16 06:15:19;;;;;;;21.25;9.35;;;;;;;-0.64;59.14;100111.66;4442352;32;20477;-87
2021/01/16 06:17:48;;;;;;;22.05;9.93;;;;;;;-0.59;59.14;100106.62;4455387;32;20104;-87
2021/01/16 06:20:17;;;;;;;19.92;9.93;;;;;;;-0.64;59.14;100109.09;4469200;32;20100;-89
2021/01/16 06:22:42;;;;;;;21.30;9.75;;;;;;;-0.56;59.15;100116.91;4466476;32;20202;-90
2021/01/16 06:25:34;;;;;;;23.25;9.50;;;;;;;-0.50;59.15;100109.34;4441080;32;20155;-90
2021/01/16 06:28:03;;;;;;;20.92;9.57;;;;;;;-0.53;59.14;100118.66;4450152;32;23397;-95
2021/01/16 06:30:28;;;;;;;16.95;8.32;;;;;;;-0.46;59.15;100120.50;4446817;32;20492;-88
2021/01/16 06:32:54;;;;;;;19.45;9.15;;;;;;;-0.25;59.16;100127.69;4438846;32;29212;-88
2021/01/16 06:35:20;;;;;;;21.50;8.60;;;;;;;-0.32;59.15;100126.72;4426356;32;20156;-88
2021/01/16 06:37:50;;;;;;;23.20;9.55;;;;;;;-0.25;59.16;100130.22;4426608;32;20131;-87
2021/01/16 06:40:34;;;;;;;21.75;9.48;;;;;;;-0.26;59.16;100144.72;4439538;32;20114;-87
2021/01/16 06:43:01;;;;;;;23.85;9.63;;;;;;;-0.25;59.16;100141.31;4452381;32;20113;-87
2021/01/16 06:45:27;;;;;;;31.23;13.02;;;;;;;-0.17;59.17;100138.94;4452562;32;20127;-88
2021/01/16 06:47:57;;;;;;;41.65;17.67;;;;;;;-0.16;59.16;100130.41;4452371;32;20165;-88
2021/01/16 06:50:23;;;;;;;;;;;;;;;-0.06;59.18;100137.41;4439925;32;20108;-88
2021/01/16 06:52:50;;;;;;;25.23;11.15;;;;;;;-0.02;59.17;100134.03;4439651;32;19994;-87
2021/01/16 06:55:19;;;;;;;27.00;11.48;;;;;;;-0.03;59.17;100137.44;4439377;32;20097;-88
2021/01/16 06:57:45;;;;;;;22.95;10.18;;;;;;;0.22;59.18;100142.13;4439567;32;20112;-87
2021/01/16 07:00:12;;;;;;;31.73;10.43;;;;;;;0.39;59.20;100142.41;4439285;32;20559;-87
2021/01/16 07:02:38;;;;;;;22.35;10.75;;;;;;;0.29;59.18;100145.66;4452245;32;20136;-87
2021/01/16 07:05:08;;;;;;;21.60;10.45;;;;;;;0.34;59.19;100153.41;4452108;32;20109;-87
2021/01/16 07:07:37;;;;;;;20.17;9.85;;;;;;;0.52;59.20;100146.00;4439491;32;20176;-87
2021/01/16 07:10:07;;;;;;;27.60;11.10;;;;;;;0.44;59.20;100142.47;4452102;32;20464;-88
2021/01/16 07:12:33;;;;;;;24.12;10.13;;;;;;;0.18;59.19;100140.34;4452217;32;20132;-88
2021/01/16 07:14:59;;;;;;;21.10;10.57;;;;;;;0.20;59.18;100140.38;4452200;32;20116;-87
2021/01/16 07:17:25;;;;;;;25.37;12.52;;;;;;;0.35;59.19;100150.00;4438822;32;20136;-87
2021/01/16 07:19:51;;;;;;;26.20;11.30;;;;;;;0.32;59.19;100147.41;4439131;32;20088;-88
2021/01/16 07:22:16;;;;;;;21.62;10.07;;;;;;;0.34;59.20;100153.41;4451882;32;20111;-88
2021/01/16 07:24:42;;;;;;;31.15;13.02;;;;;;;0.44;59.20;100155.25;4453096;32;20116;-87
2021/01/16 07:27:08;;;;;;;27.58;11.82;;;;;;;0.52;59.20;100161.38;4451796;32;20498;-88
2021/01/16 07:29:40;;;;;;;30.42;12.90;;;;;;;0.13;59.18;100165.03;4426105;32;20080;-88
2021/01/16 07:32:15;;;;;;;28.33;12.75;;;;;;;0.54;59.20;100162.25;4439107;32;20124;-88
2021/01/16 07:34:45;;;;;;;30.33;13.73;;;;;;;0.64;59.21;100161.53;4439601;32;20101;-88
2021/01/16 07:37:10;;;;;;;;;;;;;;;0.67;59.22;100159.03;4452323;32;20379;-88
2021/01/16 07:39:38;;;;;;;25.08;11.00;;;;;;;0.82;59.23;100163.50;4451707;32;20010;-87
2021/01/16 07:42:03;;;;;;;17.92;8.88;;;;;;;0.84;59.23;100159.28;4439080;32;20097;-88
2021/01/16 07:44:31;;;;;;;20.35;9.35;;;;;;;0.90;59.23;100165.31;4438054;32;26981;-88
2021/01/16 07:46:56;;;;;;;20.85;8.93;;;;;;;1.12;59.24;100160.50;4438748;32;20108;-88
2021/01/16 07:49:27;;;;;;;29.65;11.05;;;;;;;1.24;59.24;100163.22;4438099;32;23645;-87
2021/01/16 07:51:54;;;;;;;26.62;10.48;;;;;;;1.48;59.26;100158.38;4438798;32;20409;-88
2021/01/16 07:54:19;;;;;;;23.33;10.27;;;;;;;1.60;59.27;100160.19;4451330;32;20177;-88
2021/01/16 07:56:45;;;;;;;25.65;10.93;;;;;;;1.43;59.25;100157.47;4452395;32;30094;-88
2021/01/16 07:59:20;;;;;;;23.25;9.73;;;;;;;1.65;59.27;100155.97;4452627;32;29230;-88
2021/01/16 08:01:57;;;;;;;21.92;9.77;;;;;;;1.50;59.26;100156.69;4453360;32;20156;-87
2021/01/16 08:04:26;;;;;;;32.15;13.57;;;;;;;1.62;59.26;100157.62;4453117;32;20132;-87
2021/01/16 08:07:05;;;;;;;39.47;16.97;;;;;;;1.50;59.26;100154.12;4453341;32;20105;-88
2021/01/16 08:09:52;;;;;;;21.62;7.60;;;;;;;1.33;59.25;100153.06;4440120;32;20089;-88
2021/01/16 08:12:19;;;;;;;15.18;6.47;;;;;;;1.20;59.24;100154.63;4454558;32;20154;-87
2021/01/16 08:14:45;;;;;;;16.12;6.80;;;;;;;0.93;59.22;100165.38;4453244;32;20165;-88
2021/01/16 08:17:26;;;;;;;21.23;9.13;;;;;;;1.09;59.23;100161.31;4440573;32;20142;-87
2021/01/16 08:20:00;;;;;;;19.92;9.07;;;;;;;1.10;59.24;100164.75;4427863;32;20120;-87
2021/01/16 08:22:39;;;;;;;20.88;9.02;;;;;;;1.17;59.25;100167.38;4453280;32;20152;-87
2021/01/16 08:25:07;;;;;;;14.98;7.07;;;;;;;1.33;59.26;100168.44;4441048;32;20105;-87
2021/01/16 08:27:36;;;;;;;18.50;7.55;;;;;;;1.30;59.25;100170.13;4440882;32;20073;-88
2021/01/16 08:30:15;;;;;;;13.45;6.78;;;;;;;1.51;59.26;100163.53;4440342;32;20092;-87
2021/01/16 08:32:54;;;;;;;12.55;6.32;;;;;;;1.72;59.27;100175.72;4453201;32;20085;-87
2021/01/16 08:35:39;;;;;;;14.23;6.17;;;;;;;1.56;59.26;100168.72;4453398;32;20113;-88
2021/01/16 08:38:20;;;;;;;17.87;6.43;;;;;;;1.40;59.25;100179.63;4454390;32;20154;-87
2021/01/16 08:41:03;;;;;;;10.95;5.20;;;;;;;1.68;59.27;100165.44;4440403;32;20093;-87
2021/01/16 08:43:45;;;;;;;14.40;6.97;;;;;;;1.56;59.27;100165.28;4453330;32;20438;-87
2021/01/16 08:46:24;;;;;;;13.48;5.93;;;;;;;1.54;59.26;100167.84;4454407;32;20123;-87
2021/01/16 08:48:57;;;;;;;18.65;6.93;;;;;;;1.58;59.26;100169.59;4441239;32;20097;-88
2021/01/16 08:51:26;;;;;;;19.98;7.15;;;;;;;1.51;59.26;100175.50;4453049;32;20109;-87
2021/01/16 08:54:05;;;;;;;14.75;6.30;;;;;;;1.35;59.26;100184.72;4453072;32;20096;-87
2021/01/16 08:56:31;;;;;;;27.83;11.65;;;;;;;1.71;59.27;100184.28;4440956;32;20098;-87
2021/01/16 08:58:56;;;;;;;14.73;7.47;;;;;;;1.66;59.27;100182.50;4453622;32;28369;-88
2021/01/16 09:01:21;;;;;;;18.73;8.20;;;;;;;1.74;59.27;100184.31;4426706;32;22988;-88
2021/01/16 09:03:47;;;;;;;14.73;6.80;;;;;;;1.70;59.27;100185.13;4426626;32;32689;-87
2021/01/16 09:06:13;;;;;;;15.23;7.50;;;;;;;1.73;59.27;100179.16;4454251;32;28640;-87
2021/01/16 09:08:38;;;;;;;14.52;7.07;;;;;;;1.72;59.28;100183.44;4438972;32;30974;-88
2021/01/16 09:11:11;;;;;;;16.50;7.60;;;;;;;1.54;59.26;100185.78;4426715;32;29074;-88
2021/01/16 09:13:41;;;;;;;15.15;7.30;;;;;;;1.77;59.28;100183.47;4427297;32;20097;-88
2021/01/16 09:16:07;;;;;;;12.98;6.03;;;;;;;1.57;59.26;100182.41;4427405;32;20156;-88
2021/01/16 09:18:32;;;;;;;12.32;6.53;;;;;;;1.91;59.28;100179.34;4427430;32;20125;-88
2021/01/16 09:20:59;;;;;;;12.77;6.55;;;;;;;1.71;59.27;100181.72;4426966;32;20125;-87
2021/01/16 09:23:36;;;;;;;13.62;7.10;;;;;;;1.54;59.26;100185.78;4440274;32;20119;-87
2021/01/16 09:26:04;;;;;;;10.75;5.82;;;;;;;1.33;59.25;100194.09;4427290;32;20496;-88
2021/01/16 09:29:04;;;;;;;14.82;6.97;;;;;;;1.13;59.24;100192.97;4452847;32;20108;-88
2021/01/16 09:31:42;;;;;;;14.50;6.30;;;;;;;1.06;59.24;100196.31;4449731;32;20166;-88
2021/01/16 09:34:12;;;;;;;15.75;6.57;;;;;;;1.10;59.24;100195.50;4439856;32;20142;-88
2021/01/16 09:36:44;;;;;;;15.82;6.82;;;;;;;1.02;59.23;100202.25;4440322;32;20171;-89
2021/01/16 09:39:29;;;;;;;15.93;7.22;;;;;;;1.30;59.25;100195.75;4452690;32;20432;-88
2021/01/16 09:41:59;;;;;;;15.07;6.72;;;;;;;1.35;59.26;100197.53;4440050;32;20165;-88
2021/01/16 09:44:43;;;;;;;12.27;5.82;;;;;;;1.38;59.25;100197.56;4440160;32;20131;-88
2021/01/16 09:47:26;;;;;;;16.92;7.05;;;;;;;1.41;59.26;100191.59;4452639;32;20528;-88
2021/01/16 09:50:01;;;;;;;12.45;6.12;;;;;;;1.56;59.27;100185.81;4452834;32;20104;-88
2021/01/16 09:52:26;;;;;;;16.85;6.97;;;;;;;1.64;59.27;100185.03;4453994;32;20115;-87
2021/01/16 09:55:11;;;;;;;14.25;6.45;;;;;;;1.81;59.28;100173.25;4452665;32;20137;-88
2021/01/16 09:57:37;;;;;;;15.80;6.75;;;;;;;1.87;59.29;100167.31;4441538;32;20526;-87
2021/01/16 10:00:14;;;;;;;13.15;6.62;;;;;;;1.99;59.29;100167.44;4439848;32;20202;-87
2021/01/16 10:02:40;;;;;;;10.25;5.55;;;;;;;2.17;59.30;100165.91;4452815;32;20171;-87
2021/01/16 10:05:13;;;;;;;12.32;5.82;;;;;;;2.22;59.30;100156.50;4426931;32;20140;-87
2021/01/16 10:07:38;;;;;;;15.05;5.75;;;;;;;2.34;59.30;100169.44;4427411;32;20101;-88
2021/01/16 10:10:18;;;;;;;11.90;5.57;;;;;;;2.34;59.30;100162.59;4439537;32;20158;-87
2021/01/16 10:12:44;;;;;;;11.12;5.70;;;;;;;2.18;59.30;100163.34;4452425;32;20112;-87
2021/01/16 10:15:12;;;;;;;11.07;5.55;;;;;;;2.43;59.32;100162.69;4439751;32;20096;-87
2021/01/16 10:17:42;;;;;;;11.23;5.07;;;;;;;2.12;59.30;100164.12;4452602;32;20101;-87
2021/01/16 10:20:10;;;;;;;15.00;5.57;;;;;;;1.93;59.29;100158.84;4451280;32;20128;-87
2021/01/16 10:22:35;;;;;;;32.63;9.90;;;;;;;2.02;59.29;100153.75;4439626;32;20100;-88
2021/01/16 10:25:01;;;;;;;24.27;8.50;;;;;;;1.78;59.28;100149.25;4426643;32;20623;-88
2021/01/16 10:27:43;;;;;;;13.90;6.20;;;;;;;1.90;59.28;100148.53;4452497;32;20198;-87
2021/01/16 10:30:15;;;;;;;13.43;5.90;;;;;;;1.87;59.28;100143.34;4452728;32;20130;-86
2021/01/16 10:32:41;;;;;;;8.82;3.70;;;;;;;1.83;59.27;100150.16;4452539;32;20163;-86
2021/01/16 10:35:07;;;;;;;10.57;5.20;;;;;;;1.80;59.28;100132.19;4453763;32;20162;-86
2021/01/16 10:37:41;;;;;;;9.65;5.30;;;;;;;1.62;59.28;100143.09;4452275;32;20109;-87
2021/01/16 10:40:07;;;;;;;7.32;3.42;;;;;;;1.84;59.28;100131.34;4453599;32;20101;-86
2021/01/16 10:42:44;;;;;;;9.10;4.35;;;;;;;2.09;59.30;100128.16;4452405;32;20089;-86
2021/01/16 10:45:10;;;;;;;9.10;4.20;;;;;;;1.86;59.28;100127.09;4439567;32;20105;-87
2021/01/16 10:47:37;;;;;;;10.07;4.70;;;;;;;1.87;59.28;100121.09;4439263;32;20105;-87
2021/01/16 10:50:08;;;;;;;10.40;5.00;;;;;;;1.92;59.29;100124.59;4439218;32;20105;-85
2021/01/16 10:52:33;;;;;;;8.40;4.85;;;;;;;1.99;59.29;100123.78;4439634;32;20097;-86
2021/01/16 10:54:59;;;;;;;10.45;4.45;;;;;;;1.67;59.27;100127.78;4453445;32;20101;-86
2021/01/16 10:57:27;;;;;;;7.82;4.07;;;;;;;2.18;59.30;100114.53;4451909;32;20104;-86
2021/01/16 10:59:54;;;;;;;11.02;4.85;;;;;;;2.00;59.29;100115.25;4439460;32;20166;-86
2021/01/16 11:02:48;;;;;;;11.27;5.00;;;;;;;1.89;59.28;100116.84;4452021;32;20169;-86
2021/01/16 11:05:18;;;;;;;9.30;4.35;;;;;;;2.04;59.29;100118.69;4439253;32;20119;-86
2021/01/16 11:07:44;;;;;;;12.25;4.80;;;;;;;2.26;59.30;100107.75;4453650;32;20112;-86
2021/01/16 11:10:10;;;;;;;9.90;4.85;;;;;;;2.33;59.30;100104.34;4426492;32;20141;-86
2021/01/16 11:12:39;;;;;;;10.32;5.50;;;;;;;2.29;59.31;100091.50;4452183;32;20060;-87
2021/01/16 11:15:20;;;;;;;11.93;5.37;;;;;;;2.34;59.31;100092.38;4452186;32;20449;-86
2021/01/16 11:17:50;;;;;;;12.95;5.62;;;;;;;2.34;59.30;100097.50;4452170;32;20185;-86
2021/01/16 11:20:38;;;;;;;12.18;5.82;;;;;;;2.02;59.29;100084.44;4452169;32;20100;-86
2021/01/16 11:23:04;;;;;;;10.32;5.47;;;;;;;2.01;59.29;100087.87;4451261;32;34140;-87
2021/01/16 11:25:48;;;;;;;12.23;6.43;;;;;;;2.22;59.30;100082.88;4452172;32;20128;-86
2021/01/16 11:28:18;;;;;;;13.05;5.80;;;;;;;2.42;59.31;100077.87;4439765;32;20466;-86